createdAt,value
2022-10-17T00:01:50.884Z,101714.22
2022-10-17T00:04:17.263Z,101726.66
2022-10-17T00:06:43.687Z,101726.66
2022-10-17T00:09:10.064Z,101738.25
2022-10-17T00:11:36.476Z,101746.25
2022-10-17T00:14:02.924Z,101750.72
2022-10-17T00:16:34.183Z,101755.19
2022-10-17T00:19:00.558Z,101751.59
2022-10-17T00:21:26.952Z,101744.47
2022-10-17T00:23:53.679Z,101751.59
2022-10-17T00:26:20.072Z,101753.34
2022-10-17T00:28:50.008Z,101762.22
2022-10-17T00:31:17.455Z,101761.31
2022-10-17T00:33:43.868Z,101761.28
2022-10-17T00:36:12.664Z,101756.81
2022-10-17T00:38:39.923Z,101759.44
2022-10-17T00:41:06.621Z,101746.09
2022-10-17T00:43:56.480Z,101748.75
2022-10-17T00:46:23.798Z,101752.28
2022-10-17T00:48:51.087Z,101754.03
2022-10-17T00:51:17.476Z,101744.22
2022-10-17T00:53:43.870Z,101750.47
2022-10-17T00:56:10.244Z,101764.78
2022-10-17T00:58:36.638Z,101763.84
2022-10-17T01:01:03.140Z,101761.16
2022-10-17T01:03:29.589Z,101773.53
2022-10-17T01:05:55.963Z,101775.34
2022-10-17T01:08:22.363Z,101785.09
2022-10-17T01:11:04.992Z,101789.59
2022-10-17T01:13:39.234Z,101793.13
2022-10-17T01:16:08.668Z,101786.84
2022-10-17T01:18:34.936Z,101778.78
2022-10-17T01:21:27.623Z,101777.00
2022-10-17T01:24:19.117Z,101760.97
2022-10-17T01:27:00.706Z,101764.53
2022-10-17T01:29:34.417Z,101762.72
2022-10-17T01:32:08.764Z,101757.38
2022-10-17T01:34:41.817Z,101758.25
2022-10-17T01:37:15.344Z,101758.22
2022-10-17T01:39:48.110Z,101765.25
2022-10-17T01:42:21.325Z,101749.19
2022-10-17T01:45:13.075Z,101740.28
2022-10-17T01:47:39.494Z,101739.34
2022-10-17T01:50:09.341Z,101734.03
2022-10-17T01:52:42.136Z,101734.94
2022-10-17T01:55:10.478Z,101740.31
2022-10-17T01:57:42.336Z,101739.38
2022-10-17T02:00:11.228Z,101731.28
2022-10-17T02:02:37.665Z,101729.47
2022-10-17T02:05:04.220Z,101721.44
2022-10-17T02:07:30.969Z,101720.47
2022-10-17T02:09:57.525Z,101707.88
2022-10-17T02:12:45.494Z,101713.22
2022-10-17T02:15:39.349Z,101717.63
2022-10-17T02:18:30.493Z,101707.81
2022-10-17T02:21:01.002Z,101712.25
2022-10-17T02:23:28.284Z,101706.91
2022-10-17T02:26:07.979Z,101703.31
2022-10-17T02:28:47.610Z,101696.16
2022-10-17T02:31:16.755Z,101697.06
2022-10-17T02:33:52.640Z,101692.56
2022-10-17T02:36:20.715Z,101685.34
2022-10-17T02:38:47.105Z,101685.25
2022-10-17T02:41:15.551Z,101687.91
2022-10-17T02:43:41.952Z,101685.19
2022-10-17T02:46:08.345Z,101684.28
2022-10-17T02:48:41.716Z,101682.44
2022-10-17T02:51:23.719Z,101673.53
2022-10-17T02:54:10.051Z,101671.66
2022-10-17T02:56:39.582Z,101673.44
2022-10-17T02:59:05.961Z,101666.28
2022-10-17T03:01:32.374Z,101660.88
2022-10-17T03:04:09.388Z,101661.72
2022-10-17T03:06:35.809Z,101664.41
2022-10-17T03:09:02.188Z,101659.03
2022-10-17T03:11:28.593Z,101668.81
2022-10-17T03:13:54.970Z,101664.22
2022-10-17T03:16:21.354Z,101658.88
2022-10-17T03:18:50.025Z,101659.72
2022-10-17T03:21:16.764Z,101661.47
2022-10-17T03:23:43.136Z,101653.34
2022-10-17T03:26:09.563Z,101652.44
2022-10-17T03:28:36.023Z,101647.16
2022-10-17T03:31:13.233Z,101652.63
2022-10-17T03:33:39.628Z,101650.94
2022-10-17T03:36:10.286Z,101646.50
2022-10-17T03:38:36.694Z,101645.63
2022-10-17T03:41:03.908Z,101642.91
2022-10-17T03:43:30.438Z,101642.94
2022-10-17T03:45:57.601Z,101636.75
2022-10-17T03:48:24.313Z,101639.44
2022-10-17T03:50:50.678Z,101642.97
2022-10-17T03:53:17.124Z,101651.00
2022-10-17T03:55:43.508Z,101652.78
2022-10-17T03:58:09.895Z,101651.84
2022-10-17T04:00:36.553Z,101649.06
2022-10-17T04:03:03.014Z,101645.44
2022-10-17T04:05:29.388Z,101638.28
2022-10-17T04:07:56.453Z,101643.63
2022-10-17T04:10:24.315Z,101648.16
2022-10-17T04:12:50.819Z,101652.69
2022-10-17T04:15:17.225Z,101642.88
2022-10-17T04:17:43.617Z,101646.38
2022-10-17T04:20:10.407Z,101646.38
2022-10-17T04:22:36.786Z,101647.34
2022-10-17T04:25:03.162Z,101649.03
2022-10-17T04:27:29.537Z,101635.69
2022-10-17T04:29:55.921Z,101639.22
2022-10-17T04:32:22.403Z,101643.66
2022-10-17T04:34:49.173Z,101638.28
2022-10-17T04:37:15.795Z,101625.84
2022-10-17T04:39:42.236Z,101628.53
2022-10-17T04:42:08.627Z,101624.13
2022-10-17T04:44:35.037Z,101625.06
2022-10-17T04:47:01.541Z,101626.81
2022-10-17T04:49:27.958Z,101619.78
2022-10-17T04:51:54.355Z,101624.25
2022-10-17T04:54:20.739Z,101626.97
2022-10-17T04:56:47.108Z,101617.22
2022-10-17T04:59:13.504Z,101621.72
2022-10-17T05:01:39.871Z,101621.81
2022-10-17T05:04:06.353Z,101620.97
2022-10-17T05:06:32.789Z,101629.81
2022-10-17T05:08:59.221Z,101613.78
2022-10-17T05:11:26.958Z,101614.75
2022-10-17T05:13:57.398Z,101612.25
2022-10-17T05:16:23.928Z,101609.59
2022-10-17T05:18:52.930Z,101614.09
2022-10-17T05:21:19.808Z,101606.09
2022-10-17T05:23:46.244Z,101610.56
2022-10-17T05:26:13.136Z,101607.97
2022-10-17T05:28:39.551Z,101614.25
2022-10-17T05:31:06.321Z,101617.00
2022-10-17T05:33:32.851Z,101615.25
2022-10-17T05:35:59.264Z,101612.63
2022-10-17T05:38:26.224Z,101613.53
2022-10-17T05:40:56.572Z,101611.78
2022-10-17T05:43:22.961Z,101618.03
2022-10-17T05:45:49.368Z,101615.41
2022-10-17T05:48:15.735Z,101621.75
2022-10-17T05:50:42.240Z,101620.06
2022-10-17T05:53:08.617Z,101617.41
2022-10-17T05:55:35.020Z,101612.97
2022-10-17T05:58:01.642Z,101620.06
2022-10-17T06:00:28.036Z,101614.75
2022-10-17T06:02:54.414Z,101616.63
2022-10-17T06:05:21.119Z,101615.81
2022-10-17T06:07:47.545Z,101617.59
2022-10-17T06:10:13.920Z,101613.16
2022-10-17T06:12:40.312Z,101615.78
2022-10-17T06:15:07.141Z,101619.34
2022-10-17T06:17:33.521Z,101610.44
2022-10-17T06:19:59.913Z,101605.84
2022-10-17T06:22:26.620Z,101605.84
2022-10-17T06:24:53.243Z,101611.19
2022-10-17T06:27:20.147Z,101601.28
2022-10-17T06:29:47.379Z,101606.59
2022-10-17T06:32:15.121Z,101596.75
2022-10-17T06:34:41.814Z,101597.63
2022-10-17T06:37:08.193Z,101603.78
2022-10-17T06:39:35.188Z,101597.47
2022-10-17T06:42:01.712Z,101604.56
2022-10-17T06:44:28.172Z,101604.56
2022-10-17T06:46:54.550Z,101601.69
2022-10-17T06:49:23.805Z,101591.97
2022-10-17T06:51:50.340Z,101606.06
2022-10-17T06:54:16.736Z,101604.13
2022-10-17T06:56:43.094Z,101604.00
2022-10-17T06:59:10.217Z,101610.13
2022-10-17T07:01:37.351Z,101611.81
2022-10-17T07:04:03.938Z,101608.13
2022-10-17T07:06:30.363Z,101602.69
2022-10-17T07:08:56.754Z,101590.03
2022-10-17T07:11:23.198Z,101597.84
2022-10-17T07:13:49.649Z,101595.00
2022-10-17T07:16:16.111Z,101606.38
2022-10-17T07:18:42.623Z,101615.09
2022-10-17T07:21:09.292Z,101618.41
2022-10-17T07:23:36.492Z,101620.75
2022-10-17T07:26:05.583Z,101635.56
2022-10-17T07:28:32.033Z,101634.53
2022-10-17T07:31:04.063Z,101624.50
2022-10-17T07:33:30.471Z,101612.81
2022-10-17T07:35:59.296Z,101629.66
2022-10-17T07:38:26.174Z,101629.41
2022-10-17T07:41:01.448Z,101635.63
2022-10-17T07:43:27.968Z,101635.63
2022-10-17T07:45:54.550Z,101634.72
2022-10-17T07:48:21.705Z,101624.84
2022-10-17T07:50:48.314Z,101635.22
2022-10-17T07:53:14.734Z,101639.41
2022-10-17T07:55:41.462Z,101645.28
2022-10-17T07:58:08.396Z,101649.09
2022-10-17T08:00:35.617Z,101641.47
2022-10-17T08:03:02.149Z,101634.00
2022-10-17T08:05:29.308Z,101640.78
2022-10-17T08:07:55.746Z,101628.03
2022-10-17T08:10:22.327Z,101633.84
2022-10-17T08:12:48.808Z,101629.00
2022-10-17T08:15:15.287Z,101627.16
2022-10-17T08:17:41.740Z,101625.28
2022-10-17T08:20:08.520Z,101619.91
2022-10-17T08:22:35.020Z,101616.28
2022-10-17T08:25:01.388Z,101610.91
2022-10-17T08:27:27.875Z,101606.41
2022-10-17T08:29:54.528Z,101604.47
2022-10-17T08:32:21.712Z,101601.69
2022-10-17T08:34:48.145Z,101608.72
2022-10-17T08:37:14.741Z,101601.44
2022-10-17T08:39:41.745Z,101596.84
2022-10-17T08:42:08.004Z,101599.47
2022-10-17T08:45:05.684Z,101600.28
2022-10-17T08:47:39.706Z,101594.09
2022-10-17T08:50:07.792Z,101585.88
2022-10-17T08:52:42.763Z,101594.50
2022-10-17T08:55:42.795Z,101602.22
2022-10-17T08:58:22.152Z,101614.44
2022-10-17T09:01:28.593Z,101621.75
2022-10-17T09:04:37.081Z,101621.91
2022-10-17T09:07:27.123Z,101617.53
2022-10-17T09:10:03.466Z,101614.25
2022-10-17T09:12:41.363Z,101607.22
2022-10-17T09:15:38.461Z,101619.06
2022-10-17T09:18:32.256Z,101624.81
2022-10-17T09:21:17.508Z,101620.84
2022-10-17T09:23:47.370Z,101618.00
2022-10-17T09:26:13.764Z,101617.25
2022-10-17T09:28:40.932Z,101616.53
2022-10-17T09:31:32.317Z,101627.16
2022-10-17T09:34:01.209Z,101633.59
2022-10-17T09:36:30.812Z,101633.59
2022-10-17T09:38:57.856Z,101625.44
2022-10-17T09:41:49.489Z,101621.72
2022-10-17T09:44:29.536Z,101620.44
2022-10-17T09:47:05.100Z,101616.44
2022-10-17T09:49:36.204Z,101614.19
2022-10-17T09:52:10.974Z,101614.66
2022-10-17T09:54:45.226Z,101610.50
2022-10-17T09:57:12.624Z,101617.31
2022-10-17T09:59:41.412Z,101618.63
2022-10-17T10:02:17.569Z,101627.97
2022-10-17T10:05:04.252Z,101627.38
2022-10-17T10:07:32.622Z,101632.41
2022-10-17T10:09:59.352Z,101625.75
2022-10-17T10:12:28.032Z,101632.53
2022-10-17T10:14:55.479Z,101627.75
2022-10-17T10:17:29.754Z,101624.72
2022-10-17T10:19:56.337Z,101629.94
2022-10-17T10:22:22.783Z,101636.63
2022-10-17T10:25:12.778Z,101640.75
2022-10-17T10:27:40.072Z,101644.91
2022-10-17T10:30:06.887Z,101649.84
2022-10-17T10:32:34.344Z,101641.34
2022-10-17T10:35:03.591Z,101631.19
2022-10-17T10:37:40.862Z,101638.59
2022-10-17T10:40:23.979Z,101635.50
2022-10-17T10:42:51.891Z,101634.19
2022-10-17T10:45:35.894Z,101638.50
2022-10-17T10:48:26.261Z,101644.88
2022-10-17T10:50:58.538Z,101637.63
2022-10-17T10:53:35.136Z,101639.53
2022-10-17T10:56:13.383Z,101642.16
2022-10-17T10:58:42.836Z,101645.81
2022-10-17T11:01:35.047Z,101655.91
2022-10-17T11:04:20.042Z,101659.69
2022-10-17T11:06:46.451Z,101652.44
2022-10-17T11:09:48.473Z,101653.63
2022-10-17T11:12:28.067Z,101645.72
2022-10-17T11:15:16.732Z,101655.66
2022-10-17T11:18:08.790Z,101651.13
2022-10-17T11:20:56.769Z,101659.81
2022-10-17T11:23:35.289Z,101655.75
2022-10-17T11:26:05.564Z,101661.06
2022-10-17T11:28:32.003Z,101663.69
2022-10-17T11:31:08.222Z,101668.25
2022-10-17T11:33:54.913Z,101660.03
2022-10-17T11:36:24.018Z,101654.63
2022-10-17T11:39:16.465Z,101655.22
2022-10-17T11:41:51.919Z,101646.97
2022-10-17T11:44:35.786Z,101650.63
2022-10-17T11:47:07.271Z,101641.72
2022-10-17T11:53:05.533Z,101629.06
2022-10-17T11:55:32.035Z,101643.75
2022-10-17T11:58:17.102Z,101662.13
2022-10-17T12:01:21.524Z,101685.00
2022-10-17T12:04:12.785Z,101701.63
2022-10-17T12:07:08.334Z,101696.69
2022-10-17T12:09:42.200Z,101677.06
2022-10-17T12:12:08.705Z,101700.59
2022-10-17T12:14:41.667Z,101690.66
2022-10-17T12:17:20.231Z,101718.28
2022-10-17T12:19:46.628Z,101698.28
2022-10-17T12:22:26.034Z,101706.84
2022-10-17T12:24:57.676Z,101728.00
2022-10-17T12:27:43.051Z,101705.59
2022-10-17T12:30:12.456Z,101708.34
2022-10-17T12:33:07.825Z,101704.00
2022-10-17T12:35:36.087Z,101697.56
2022-10-17T12:38:17.689Z,101691.22
2022-10-17T12:40:48.413Z,101709.97
2022-10-17T12:43:15.277Z,101709.03
2022-10-17T12:46:01.045Z,101703.72
2022-10-17T12:48:33.567Z,101715.38
2022-10-17T12:51:34.884Z,101722.72
2022-10-17T12:53:59.259Z,101732.78
2022-10-17T12:56:38.711Z,101735.56
2022-10-17T12:59:18.219Z,101740.19
2022-10-17T13:01:46.602Z,101735.09
2022-10-17T13:04:13.299Z,101738.72
2022-10-17T13:06:56.219Z,101740.06
2022-10-17T13:09:22.594Z,101762.72
2022-10-17T13:11:49.164Z,101818.41
2022-10-17T13:14:17.115Z,101830.75
2022-10-17T13:16:56.550Z,101749.34
2022-10-17T13:19:28.931Z,101754.03
2022-10-17T13:21:59.895Z,101750.66
2022-10-17T13:24:38.287Z,101768.47
2022-10-17T13:27:05.345Z,101757.78
2022-10-17T13:29:31.756Z,101735.50
2022-10-17T13:32:02.719Z,101721.22
2022-10-17T13:34:29.121Z,101735.69
2022-10-17T13:36:57.032Z,101737.63
2022-10-17T13:39:38.524Z,101750.03
2022-10-17T13:42:24.760Z,101752.75
2022-10-17T13:44:51.276Z,101761.88
2022-10-17T13:47:25.396Z,101765.47
2022-10-17T13:49:55.196Z,101783.50
2022-10-17T13:52:25.605Z,101788.13
2022-10-17T13:54:52.318Z,101790.81
2022-10-17T13:57:30.183Z,101787.28
2022-10-17T14:00:18.218Z,101786.41
2022-10-17T14:02:44.593Z,101777.44
2022-10-17T14:05:18.093Z,101776.63
2022-10-17T14:08:12.061Z,101767.72
2022-10-17T14:10:37.969Z,101758.69
2022-10-17T14:13:05.573Z,101747.03
2022-10-17T14:15:34.263Z,101750.59
2022-10-17T14:18:07.705Z,101746.84
2022-10-17T14:23:29.989Z,101737.84
2022-10-17T14:26:12.601Z,101747.69
2022-10-17T14:28:39.529Z,101742.28
2022-10-17T14:31:15.105Z,101760.22
2022-10-17T14:33:49.741Z,101769.25
2022-10-17T14:36:17.522Z,101780.03
2022-10-17T14:38:48.974Z,101780.97
2022-10-17T14:41:42.756Z,101781.91
2022-10-17T14:44:17.603Z,101793.56
2022-10-17T14:46:49.578Z,101797.19
2022-10-17T14:49:24.267Z,101816.81
2022-10-17T14:52:16.810Z,101825.53
2022-10-17T14:54:45.489Z,101831.91
2022-10-17T14:57:18.519Z,101836.56
2022-10-17T15:00:00.161Z,101834.81
2022-10-17T15:02:28.164Z,101834.94
2022-10-17T15:04:54.774Z,101842.97
2022-10-17T15:07:21.295Z,101843.91
2022-10-17T15:09:48.434Z,101849.28
2022-10-17T15:12:22.579Z,101854.69
2022-10-17T15:14:48.994Z,101855.63
2022-10-17T15:17:17.798Z,101853.69
2022-10-17T15:19:44.587Z,101862.66
2022-10-17T15:22:11.530Z,101856.44
2022-10-17T15:24:37.956Z,101864.53
2022-10-17T15:27:13.773Z,101863.69
2022-10-17T15:29:40.203Z,101863.75
2022-10-17T15:32:06.575Z,101871.91
2022-10-17T15:34:32.972Z,101875.53
2022-10-17T15:36:59.414Z,101876.41
2022-10-17T15:39:25.821Z,101873.78
2022-10-17T15:41:52.216Z,101875.59
2022-10-17T15:44:18.588Z,101875.69
2022-10-17T15:46:45.055Z,101877.50
2022-10-17T15:49:13.459Z,101878.44
2022-10-17T15:51:40.029Z,101875.69
2022-10-17T15:54:06.638Z,101881.19
2022-10-17T15:56:37.485Z,101883.97
2022-10-17T15:59:15.201Z,101888.50
2022-10-17T16:01:42.001Z,101885.78
2022-10-17T16:04:11.783Z,101889.38
2022-10-17T16:06:38.677Z,101886.72
2022-10-17T16:09:05.076Z,101881.53
2022-10-17T16:11:32.051Z,101888.63
2022-10-17T16:14:00.185Z,101886.09
2022-10-17T16:16:26.630Z,101899.47
2022-10-17T16:18:53.033Z,101898.69
2022-10-17T16:21:20.020Z,101900.56
2022-10-17T16:23:46.468Z,101897.91
2022-10-17T16:26:12.896Z,101906.94
2022-10-17T16:28:42.425Z,101901.56
2022-10-17T16:31:27.399Z,101898.94
2022-10-17T16:33:54.171Z,101899.78
2022-10-17T16:36:20.686Z,101911.59
2022-10-17T16:38:47.331Z,101909.78
2022-10-17T16:41:30.598Z,101907.88
2022-10-17T16:43:58.914Z,101910.72
2022-10-17T16:46:26.012Z,101914.34
2022-10-17T16:48:52.444Z,101917.84
2022-10-17T16:51:19.188Z,101922.16
2022-10-17T16:53:46.445Z,101926.81
2022-10-17T16:56:14.885Z,101926.94
2022-10-17T16:58:41.800Z,101934.13
2022-10-17T17:01:10.612Z,101931.50
2022-10-17T17:03:37.913Z,101936.00
2022-10-17T17:06:05.370Z,101940.44
2022-10-17T17:08:32.597Z,101941.28
2022-10-17T17:10:59.079Z,101942.16
2022-10-17T17:13:26.128Z,101948.47
2022-10-17T17:15:52.752Z,101942.91
2022-10-17T17:18:22.170Z,101945.59
2022-10-17T17:20:48.544Z,101943.16
2022-10-17T17:23:16.005Z,101953.09
2022-10-17T17:25:42.486Z,101958.38
2022-10-17T17:28:08.924Z,101954.84
2022-10-17T17:30:35.382Z,101966.69
2022-10-17T17:33:01.862Z,101964.81
2022-10-17T17:35:28.427Z,101963.91
2022-10-17T17:37:55.168Z,101965.00
2022-10-17T17:40:22.972Z,101967.78
2022-10-17T17:42:49.394Z,101972.41
2022-10-17T17:45:15.889Z,101983.06
2022-10-17T17:47:42.331Z,101981.31
2022-10-17T17:50:08.848Z,101989.38
2022-10-17T17:52:35.256Z,101991.19
2022-10-17T17:55:01.668Z,101988.56
2022-10-17T17:57:29.429Z,101982.22
2022-10-17T17:59:55.833Z,101992.13
2022-10-17T18:02:22.235Z,101983.16
2022-10-17T18:04:48.639Z,101993.06
2022-10-17T18:07:15.132Z,101982.38
2022-10-17T18:09:41.531Z,101979.69
2022-10-17T18:12:08.961Z,101984.00
2022-10-17T18:14:35.338Z,101985.81
2022-10-17T18:17:01.795Z,101981.31
2022-10-17T18:19:28.175Z,101979.53
2022-10-17T18:21:54.565Z,101989.44
2022-10-17T18:24:20.989Z,101992.13
2022-10-17T18:26:47.364Z,101985.81
2022-10-17T18:29:13.832Z,101992.06
2022-10-17T18:31:40.317Z,101992.97
2022-10-17T18:34:06.758Z,101997.41
2022-10-17T18:36:33.691Z,101999.22
2022-10-17T18:39:01.689Z,102004.66
2022-10-17T18:41:28.227Z,102006.44
2022-10-17T18:43:55.045Z,102011.88
2022-10-17T18:46:23.268Z,102012.03
2022-10-17T18:48:50.084Z,102028.25
2022-10-17T18:51:19.505Z,102014.78
2022-10-17T18:53:48.161Z,102022.03
2022-10-17T18:56:15.794Z,102025.75
2022-10-17T18:58:42.201Z,102029.47
2022-10-17T19:01:27.730Z,102025.94
2022-10-17T19:03:57.200Z,102027.84
2022-10-17T19:06:27.819Z,102023.44
2022-10-17T19:08:56.743Z,102025.41
2022-10-17T19:11:25.864Z,102025.47
2022-10-17T19:13:52.372Z,102032.00
2022-10-17T19:16:23.959Z,102036.84
2022-10-17T19:18:51.276Z,102046.00
2022-10-17T19:21:21.669Z,102049.84
2022-10-17T19:23:53.018Z,102046.53
2022-10-17T19:26:19.568Z,102037.72
2022-10-17T19:28:46.072Z,102050.41
2022-10-17T19:31:16.890Z,102054.06
2022-10-17T19:33:44.441Z,102052.47
2022-10-17T19:36:11.230Z,102058.06
2022-10-17T19:38:37.704Z,102067.97
2022-10-17T19:41:08.008Z,102065.47
2022-10-17T19:43:38.231Z,102065.66
2022-10-17T19:46:06.824Z,102066.66
2022-10-17T19:48:34.320Z,102070.31
2022-10-17T19:51:00.761Z,102072.06
2022-10-17T19:53:27.225Z,102068.59
2022-10-17T19:55:53.612Z,102079.44
2022-10-17T19:58:20.180Z,102083.91
2022-10-17T20:00:47.803Z,102091.25
2022-10-17T20:03:14.173Z,102091.38
2022-10-17T20:05:40.568Z,102106.66
2022-10-17T20:08:06.990Z,102111.25
2022-10-17T20:10:33.651Z,102108.56
2022-10-17T20:13:00.027Z,102112.25
2022-10-17T20:15:26.449Z,102116.88
2022-10-17T20:17:52.831Z,102113.44
2022-10-17T20:20:19.609Z,102113.56
2022-10-17T20:22:46.034Z,102115.53
2022-10-17T20:25:12.410Z,102119.13
2022-10-17T20:27:38.804Z,102119.97
2022-10-17T20:30:05.681Z,102127.13
2022-10-17T20:32:33.048Z,102125.19
2022-10-17T20:34:59.572Z,102136.88
2022-10-17T20:37:26.044Z,102140.47
2022-10-17T20:40:06.271Z,102142.34
2022-10-17T20:42:38.814Z,102151.41
2022-10-17T20:45:05.752Z,102161.25
2022-10-17T20:47:46.029Z,102164.81
2022-10-17T20:50:14.692Z,102158.47
2022-10-17T20:52:41.066Z,102172.75
2022-10-17T20:55:07.770Z,102176.38
2022-10-17T20:57:34.168Z,102182.66
2022-10-17T21:00:00.609Z,102188.06
2022-10-17T21:02:26.985Z,102188.06
2022-10-17T21:04:53.395Z,102180.03
2022-10-17T21:07:19.779Z,102189.97
2022-10-17T21:09:46.156Z,102189.13
2022-10-17T21:12:18.140Z,102190.03
2022-10-17T21:14:52.653Z,102188.28
2022-10-17T21:17:19.034Z,102185.66
2022-10-17T21:19:45.448Z,102185.59
2022-10-17T21:22:11.839Z,102185.66
2022-10-17T21:24:38.206Z,102186.69
2022-10-17T21:27:04.628Z,102183.16
2022-10-17T21:29:31.004Z,102184.91
2022-10-17T21:31:57.412Z,102180.47
2022-10-17T21:34:23.968Z,102181.34
2022-10-17T21:36:50.479Z,102176.00
2022-10-17T21:39:17.194Z,102160.13
2022-10-17T21:41:44.204Z,102182.22
2022-10-17T21:44:17.680Z,102189.44
2022-10-17T21:46:44.189Z,102196.56
2022-10-17T21:49:14.972Z,102191.19
2022-10-17T21:51:41.429Z,102192.16
2022-10-17T21:54:07.914Z,102193.97
2022-10-17T21:56:34.328Z,102185.91
2022-10-17T21:59:00.788Z,102185.00
2022-10-17T22:01:32.860Z,102183.28
2022-10-17T22:04:01.416Z,102186.84
2022-10-17T22:06:45.031Z,102188.66
2022-10-17T22:09:14.420Z,102185.09
2022-10-17T22:11:40.868Z,102185.16
2022-10-17T22:14:10.106Z,102188.75
2022-10-17T22:16:37.323Z,102187.91
2022-10-17T22:19:06.267Z,102195.97
2022-10-17T22:21:33.861Z,102207.56
2022-10-17T22:24:01.660Z,102205.69
2022-10-17T22:26:28.941Z,102208.38
2022-10-17T22:28:55.361Z,102207.44
2022-10-17T22:31:21.814Z,102206.56
2022-10-17T22:33:48.215Z,102199.41
2022-10-17T22:36:14.636Z,102186.84
2022-10-17T22:38:41.027Z,102196.63
2022-10-17T22:41:07.588Z,102193.09
2022-10-17T22:43:33.997Z,102201.09
2022-10-17T22:46:02.380Z,102197.63
2022-10-17T22:48:29.187Z,102198.56
2022-10-17T22:50:56.085Z,102204.09
2022-10-17T22:53:22.572Z,102199.75
2022-10-17T22:56:09.534Z,102198.06
2022-10-17T22:58:36.078Z,102199.88
2022-10-17T23:01:02.897Z,102206.19
2022-10-17T23:03:29.626Z,102198.16
2022-10-17T23:05:55.988Z,102195.56
2022-10-17T23:08:22.508Z,102201.81
2022-10-17T23:10:48.903Z,102207.25
2022-10-17T23:13:15.372Z,102202.81
2022-10-17T23:15:41.833Z,102203.84
2022-10-17T23:18:08.328Z,102205.63
2022-10-17T23:20:34.732Z,102211.91
2022-10-17T23:23:01.116Z,102219.09
2022-10-17T23:25:27.496Z,102216.31
2022-10-17T23:27:53.952Z,102212.81
2022-10-17T23:30:20.410Z,102216.25
2022-10-17T23:32:46.824Z,102218.91
2022-10-17T23:35:13.218Z,102218.94
2022-10-17T23:37:39.607Z,102218.94
2022-10-17T23:40:06.456Z,102212.69
2022-10-17T23:42:32.845Z,102204.63
2022-10-17T23:44:59.245Z,102217.94
2022-10-17T23:47:25.615Z,102210.78
2022-10-17T23:49:52.104Z,102208.13
2022-10-17T23:52:18.494Z,102210.69
2022-10-17T23:54:44.937Z,102217.03
2022-10-17T23:57:11.420Z,102227.78
2022-10-17T23:59:37.914Z,102231.38
